Yushe, China
Current Conditions -  °F | °C
As of 10:00 AM on Tuesday 23 Dec 2014 (Local Time) from ZBYN Reporting Station
Haze Haze  
Wind Chill: 28°   Ceiling: Unl
Heat Index: 28°   Visibility: 2.5mi
Dew Point:   Wind: 2mph
Humidity: 37%   Direction: 100°E
Pressure: 30.15"   Gusts: NA
Location:  37.07°N, 112.98°E
Report Text: ZBYN 230200Z 10001MPS 4000 HZ NSC M02/M15 Q1021 NOSIG
Loading
Personal Weather Stations






























Interactive Weather Map New forecast layout! Learn more

10-Day Weather Forecast

Advertisements
Track Severe Weather on mobile